Time,TemperatureF,DewpointF,PressureIn,WindDirection,WindDirectionDegrees,WindSpeedMPH,WindSpeedGustMPH,Humidity,HourlyPrecipIn,Conditions,Clouds,dailyrainin,SoftwareType,DateUTC
2013-05-16 00:00:00,67.8,49.5,29.86,West,271,0.0,4.0,52,0.00,,SKC,0.00,VWS V14.01,2013-05-16 04:00:00,
2013-05-16 00:01:00,67.8,49.5,29.86,West,271,0.0,0.0,52,0.00,,SKC,0.00,VWS V14.01,2013-05-16 04:01:00,
2013-05-16 00:06:00,67.9,48.6,29.86,West,271,0.0,1.0,50,0.00,,SKC,0.00,VWS V14.01,2013-05-16 04:06:00,
2013-05-16 00:11:00,69.4,48.9,29.86,West,271,0.0,0.0,48,0.00,,SKC,0.00,VWS V14.01,2013-05-16 04:11:00,
2013-05-16 00:16:00,71.1,49.3,29.85,West,265,3.0,3.0,46,0.00,,SKC,0.00,VWS V14.01,2013-05-16 04:16:00,
2013-05-16 00:21:00,72.3,49.2,29.85,West,266,2.0,2.0,44,0.00,,SKC,0.00,VWS V14.01,2013-05-16 04:21:00,
2013-05-16 00:26:00,73.0,49.8,29.85,West,266,4.0,4.0,44,0.00,,SKC,0.00,VWS V14.01,2013-05-16 04:26:00,
2013-05-16 00:31:00,73.2,50.0,29.84,West,266,2.0,2.0,44,0.00,,SKC,0.00,VWS V14.01,2013-05-16 04:31:00,
2013-05-16 00:36:00,73.2,50.0,29.84,West,266,1.0,3.0,44,0.00,,SKC,0.00,VWS V14.01,2013-05-16 04:36:00,
2013-05-16 00:41:00,73.2,50.0,29.84,West,266,0.0,0.0,44,0.00,,SKC,0.00,VWS V14.01,2013-05-16 04:41:00,
2013-05-16 00:46:00,73.0,50.4,29.85,West,266,1.0,1.0,45,0.00,,SKC,0.00,VWS V14.01,2013-05-16 04:46:00,
2013-05-16 00:51:00,72.7,50.2,29.85,West,266,0.0,0.0,45,0.00,,SKC,0.00,VWS V14.01,2013-05-16 04:51:00,
2013-05-16 00:56:00,72.5,50.0,29.85,West,266,0.0,0.0,45,0.00,,SKC,0.00,VWS V14.01,2013-05-16 04:56:00,
2013-05-16 01:01:00,72.1,51.3,29.85,West,266,0.0,0.0,48,0.00,,SKC,0.00,VWS V14.01,2013-05-16 05:01:00,
2013-05-16 01:06:00,71.1,51.5,29.85,West,266,0.0,0.0,50,0.00,,SKC,0.00,VWS V14.01,2013-05-16 05:06:00,
2013-05-16 01:11:00,70.3,51.3,29.85,West,266,0.0,0.0,51,0.00,,SKC,0.00,VWS V14.01,2013-05-16 05:11:00,
2013-05-16 01:16:00,69.6,51.2,29.85,West,266,0.0,0.0,52,0.00,,SKC,0.00,VWS V14.01,2013-05-16 05:16:00,
2013-05-16 01:21:00,69.1,51.3,29.85,West,266,0.0,0.0,53,0.00,,SKC,0.00,VWS V14.01,2013-05-16 05:21:00,
2013-05-16 01:26:00,68.8,51.5,29.85,West,266,2.0,2.0,54,0.00,,SKC,0.00,VWS V14.01,2013-05-16 05:26:00,
2013-05-16 01:31:00,68.4,51.6,29.85,West,266,0.0,1.0,55,0.00,,SKC,0.00,VWS V14.01,2013-05-16 05:31:00,
2013-05-16 01:36:00,68.3,51.5,29.85,West,266,0.0,0.0,55,0.00,,SKC,0.00,VWS V14.01,2013-05-16 05:36:00,
2013-05-16 01:41:00,68.1,51.3,29.85,West,266,0.0,0.0,55,0.00,,SKC,0.00,VWS V14.01,2013-05-16 05:41:00,
2013-05-16 01:46:00,68.1,51.8,29.84,West,266,2.0,4.0,56,0.00,,SKC,0.00,VWS V14.01,2013-05-16 05:46:00,
2013-05-16 01:51:00,67.9,52.1,29.84,West,266,0.0,0.0,57,0.00,,SKC,0.00,VWS V14.01,2013-05-16 05:51:00,
2013-05-16 01:56:00,67.6,52.3,29.84,West,266,0.0,2.0,58,0.00,,SKC,0.00,VWS V14.01,2013-05-16 05:56:00,
2013-05-16 02:01:00,67.1,51.8,29.85,West,269,4.0,4.0,58,0.00,,SKC,0.00,VWS V14.01,2013-05-16 06:01:00,
2013-05-16 02:06:00,66.9,51.7,29.85,West,269,3.0,3.0,58,0.00,,SKC,0.00,VWS V14.01,2013-05-16 06:06:00,
2013-05-16 02:11:00,67.3,51.6,29.85,West,269,0.0,1.0,57,0.00,,SKC,0.00,VWS V14.01,2013-05-16 06:11:00,
2013-05-16 02:16:00,67.4,51.7,29.84,West,269,0.0,0.0,57,0.00,,SKC,0.00,VWS V14.01,2013-05-16 06:16:00,
2013-05-16 02:21:00,67.6,50.9,29.84,West,269,3.0,4.0,55,0.00,,SKC,0.00,VWS V14.01,2013-05-16 06:21:00,
2013-05-16 02:26:00,67.3,51.6,29.84,West,275,3.0,4.0,57,0.00,,SKC,0.00,VWS V14.01,2013-05-16 06:26:00,
2013-05-16 02:31:00,67.1,51.8,29.83,West,275,0.0,0.0,58,0.00,,SKC,0.00,VWS V14.01,2013-05-16 06:31:00,
2013-05-16 02:36:00,66.9,51.7,29.83,West,275,3.0,4.0,58,0.00,,SKC,0.00,VWS V14.01,2013-05-16 06:36:00,
2013-05-16 02:41:00,66.6,51.8,29.83,West,275,0.0,3.0,59,0.00,,SKC,0.00,VWS V14.01,2013-05-16 06:41:00,
2013-05-16 02:46:00,66.6,51.4,29.83,West,275,0.0,0.0,58,0.00,,SKC,0.00,VWS V14.01,2013-05-16 06:46:00,
2013-05-16 02:51:00,66.8,51.1,29.83,West,275,2.0,2.0,57,0.00,,SKC,0.00,VWS V14.01,2013-05-16 06:51:00,
2013-05-16 02:56:00,67.4,50.2,29.83,West,273,0.0,0.0,54,0.00,,SKC,0.00,VWS V14.01,2013-05-16 06:56:00,
2013-05-16 03:01:00,67.9,51.2,29.83,West,273,0.0,0.0,55,0.00,,SKC,0.00,VWS V14.01,2013-05-16 07:01:00,
2013-05-16 03:06:00,68.4,51.1,29.83,West,273,3.0,3.0,54,0.00,,SKC,0.00,VWS V14.01,2013-05-16 07:06:00,
2013-05-16 03:11:00,68.6,48.7,29.83,West,268,2.0,2.0,49,0.00,,SKC,0.00,VWS V14.01,2013-05-16 07:11:00,
2013-05-16 03:16:00,69.1,49.2,29.83,West,268,0.0,0.0,49,0.00,,SKC,0.00,VWS V14.01,2013-05-16 07:16:00,
2013-05-16 03:21:00,69.1,48.6,29.83,West,259,8.0,8.0,48,0.00,,SKC,0.00,VWS V14.01,2013-05-16 07:21:00,
2013-05-16 03:26:00,69.9,48.2,29.83,West,277,4.0,4.0,46,0.00,,SKC,0.00,VWS V14.01,2013-05-16 07:26:00,
2013-05-16 20:52:00,69.4,49.4,29.91,WNW,292,1.0,4.0,49,0.00,,SKC,0.00,VWS V14.01,2013-05-17 00:52:00,
2013-05-16 20:57:00,68.8,50.0,29.91,WNW,285,0.0,1.0,51,0.00,,SKC,0.00,VWS V14.01,2013-05-17 00:57:00,
2013-05-16 21:02:00,68.1,49.8,29.91,WNW,285,3.0,3.0,52,0.00,,SKC,0.00,VWS V14.01,2013-05-17 01:02:00,
2013-05-16 21:07:00,67.4,50.2,29.91,WNW,285,0.0,5.0,54,0.00,,SKC,0.00,VWS V14.01,2013-05-17 01:07:00,
2013-05-16 21:12:00,66.9,49.7,29.91,WNW,285,0.0,4.0,54,0.00,,SKC,0.00,VWS V14.01,2013-05-17 01:12:00,
2013-05-16 21:17:00,66.8,49.1,29.92,WNW,285,0.0,0.0,53,0.00,,SKC,0.00,VWS V14.01,2013-05-17 01:17:00,
2013-05-16 21:22:00,66.9,47.1,29.92,WNW,285,0.0,1.0,49,0.00,,SKC,0.00,VWS V14.01,2013-05-17 01:22:00,
2013-05-16 21:27:00,67.1,48.9,29.92,WNW,285,0.0,0.0,52,0.00,,SKC,0.00,VWS V14.01,2013-05-17 01:27:00,
2013-05-16 21:32:00,67.1,47.9,29.92,WNW,285,0.0,1.0,50,0.00,,SKC,0.00,VWS V14.01,2013-05-17 01:32:00,
2013-05-16 21:37:00,66.4,49.3,29.92,WNW,285,0.0,3.0,54,0.00,,SKC,0.00,VWS V14.01,2013-05-17 01:37:00,
2013-05-16 21:42:00,66.0,48.9,29.92,WNW,285,4.0,4.0,54,0.00,,SKC,0.00,VWS V14.01,2013-05-17 01:42:00,
2013-05-16 21:47:00,65.8,48.2,29.92,WNW,285,0.0,0.0,53,0.00,,SKC,0.00,VWS V14.01,2013-05-17 01:47:00,
2013-05-16 21:52:00,66.0,48.4,29.92,WNW,285,0.0,2.0,53,0.00,,SKC,0.00,VWS V14.01,2013-05-17 01:52:00,
2013-05-16 21:57:00,65.6,49.0,29.92,WNW,285,0.0,1.0,55,0.00,,SKC,0.00,VWS V14.01,2013-05-17 01:57:00,
2013-05-16 22:02:00,65.2,49.1,29.93,WNW,285,0.0,0.0,56,0.00,,SKC,0.00,VWS V14.01,2013-05-17 02:02:00,
2013-05-16 22:07:00,64.8,48.3,29.93,WNW,285,1.0,2.0,55,0.00,,SKC,0.00,VWS V14.01,2013-05-17 02:07:00,
2013-05-16 22:12:00,65.0,48.9,29.93,WNW,286,2.0,3.0,56,0.00,,SKC,0.00,VWS V14.01,2013-05-17 02:12:00,
2013-05-16 22:17:00,64.5,49.4,29.93,WNW,285,0.0,4.0,58,0.00,,SKC,0.00,VWS V14.01,2013-05-17 02:17:00,
2013-05-16 22:21:00,64.0,48.9,29.93,WNW,285,4.0,4.0,58,0.00,,SKC,0.00,VWS V14.01,2013-05-17 02:21:00,
2013-05-16 22:26:00,64.0,47.5,29.93,WNW,285,0.0,0.0,55,0.00,,SKC,0.00,VWS V14.01,2013-05-17 02:26:00,
2013-05-16 22:32:00,64.0,48.0,29.94,WNW,285,1.0,3.0,56,0.00,,SKC,0.00,VWS V14.01,2013-05-17 02:32:00,
2013-05-16 22:37:00,63.7,48.2,29.94,WNW,285,2.0,3.0,57,0.00,,SKC,0.00,VWS V14.01,2013-05-17 02:37:00,
2013-05-16 22:41:00,63.7,47.7,29.94,WNW,285,0.0,1.0,56,0.00,,SKC,0.00,VWS V14.01,2013-05-17 02:41:00,
2013-05-16 22:46:00,63.7,48.2,29.94,WNW,285,0.0,3.0,57,0.00,,SKC,0.00,VWS V14.01,2013-05-17 02:46:00,
2013-05-16 22:51:00,63.4,48.4,29.94,WNW,285,0.0,4.0,58,0.00,,SKC,0.00,VWS V14.01,2013-05-17 02:51:00,
2013-05-16 22:56:00,62.9,48.4,29.94,WNW,285,0.0,0.0,59,0.00,,SKC,0.00,VWS V14.01,2013-05-17 02:56:00,
2013-05-16 23:01:00,62.7,47.3,29.95,WNW,285,0.0,0.0,57,0.00,,SKC,0.00,VWS V14.01,2013-05-17 03:01:00,
2013-05-16 23:06:00,62.7,48.2,29.95,WNW,285,0.0,0.0,59,0.00,,SKC,0.00,VWS V14.01,2013-05-17 03:06:00,
2013-05-16 23:11:00,62.6,48.5,29.95,WNW,285,0.0,0.0,60,0.00,,SKC,0.00,VWS V14.01,2013-05-17 03:11:00,
2013-05-16 23:16:00,62.4,48.3,29.95,WNW,286,0.0,0.0,60,0.00,,SKC,0.00,VWS V14.01,2013-05-17 03:16:00,
2013-05-16 23:21:00,62.3,48.2,29.95,WNW,286,0.0,0.0,60,0.00,,SKC,0.00,VWS V14.01,2013-05-17 03:21:00,
2013-05-16 23:26:00,62.4,48.8,29.95,WNW,285,0.0,0.0,61,0.00,,SKC,0.00,VWS V14.01,2013-05-17 03:26:00,
2013-05-16 23:31:00,62.3,48.7,29.94,WNW,285,0.0,0.0,61,0.00,,SKC,0.00,VWS V14.01,2013-05-17 03:31:00,
2013-05-16 23:36:00,62.0,48.8,29.94,WNW,286,0.0,0.0,62,0.00,,SKC,0.00,VWS V14.01,2013-05-17 03:36:00,
2013-05-16 23:41:00,61.6,48.5,29.94,WNW,286,0.0,0.0,62,0.00,,SKC,0.00,VWS V14.01,2013-05-17 03:41:00,
2013-05-16 23:46:00,61.5,48.4,29.94,WNW,286,0.0,0.0,62,0.00,,SKC,0.00,VWS V14.01,2013-05-17 03:46:00,
2013-05-16 23:51:00,61.5,48.4,29.94,WNW,285,0.0,0.0,62,0.00,,SKC,0.00,VWS V14.01,2013-05-17 03:51:00,
2013-05-16 23:56:00,61.5,48.4,29.94,WNW,286,0.0,0.0,62,0.00,,SKC,0.00,VWS V14.01,2013-05-17 03:56:00,